createdAt,value
2022-08-20T00:00:36.977Z,98261.83
2022-08-20T00:01:41.919Z,98265.39
2022-08-20T00:02:48.395Z,98266.38
2022-08-20T00:03:53.501Z,98267.52
2022-08-20T00:04:55.306Z,98272.67
2022-08-20T00:06:19.641Z,98274.96
2022-08-20T00:07:21.331Z,98278.18
2022-08-20T00:08:23.632Z,98283.89
2022-08-20T00:09:25.354Z,98285.15
2022-08-20T00:10:33.961Z,98294.34
2022-08-20T00:11:35.676Z,98306.85
2022-08-20T00:12:38.499Z,98315.86
2022-08-20T00:13:47.960Z,98321.43
2022-08-20T00:14:49.642Z,98330.60
2022-08-20T00:15:52.642Z,98336.30
2022-08-20T00:16:54.361Z,98339.42
2022-08-20T00:18:02.726Z,98337.09
2022-08-20T00:19:08.315Z,98340.02
2022-08-20T00:20:13.899Z,98345.74
2022-08-20T00:21:19.072Z,98356.66
2022-08-20T00:22:21.076Z,98366.64
2022-08-20T00:23:24.085Z,98368.82
2022-08-20T00:24:26.508Z,98365.91
2022-08-20T00:25:29.529Z,98364.77
2022-08-20T00:26:31.208Z,98362.81
2022-08-20T00:27:33.196Z,98362.26
2022-08-20T00:28:35.191Z,98353.70
2022-08-20T00:29:36.856Z,98348.23
2022-08-20T00:30:40.439Z,98354.19
2022-08-20T00:31:43.199Z,98353.36
2022-08-20T00:32:47.631Z,98354.12
2022-08-20T00:33:51.254Z,98351.02
2022-08-20T00:34:53.130Z,98350.71
2022-08-20T00:35:56.793Z,98343.81
2022-08-20T00:36:58.448Z,98342.75
2022-08-20T00:38:00.845Z,98333.62
2022-08-20T00:39:02.864Z,98334.45
2022-08-20T00:40:07.478Z,98335.45
2022-08-20T00:41:26.824Z,98328.99
2022-08-20T00:42:28.544Z,98321.55
2022-08-20T00:43:50.051Z,98323.02
2022-08-20T00:44:51.769Z,98321.47
2022-08-20T00:45:56.318Z,98322.71
2022-08-20T00:46:58.555Z,98316.95
2022-08-20T00:48:00.981Z,98305.19
2022-08-20T00:49:05.983Z,98294.05
2022-08-20T00:50:08.784Z,98283.29
2022-08-20T00:51:33.560Z,98271.65
2022-08-20T00:52:35.767Z,98267.63
2022-08-20T00:53:38.408Z,98266.45
2022-08-20T00:54:49.687Z,98270.80
2022-08-20T00:55:51.573Z,98267.67
2022-08-20T00:57:03.501Z,98271.38
2022-08-20T00:58:09.658Z,98269.03
2022-08-20T00:59:17.863Z,98248.50
2022-08-20T01:00:29.386Z,98224.02
2022-08-20T01:01:34.083Z,98207.13
2022-08-20T01:02:57.570Z,98200.43
2022-08-20T01:03:59.458Z,98207.23
2022-08-20T01:05:01.796Z,98210.38
2022-08-20T01:06:03.732Z,98230.23
2022-08-20T01:07:07.111Z,98247.88
2022-08-20T01:08:09.532Z,98253.09
2022-08-20T01:09:11.994Z,98261.85
2022-08-20T01:10:20.158Z,98263.17
2022-08-20T01:11:39.930Z,98262.45
2022-08-20T01:12:46.330Z,98266.40
2022-08-20T01:13:48.963Z,98268.55
2022-08-20T01:14:51.650Z,98273.34
2022-08-20T01:15:56.893Z,98274.58
2022-08-20T01:17:03.090Z,98275.80
2022-08-20T01:18:07.534Z,98267.61
2022-08-20T01:19:29.832Z,98257.20
2022-08-20T01:20:39.662Z,98243.17
2022-08-20T01:21:41.561Z,98236.21
2022-08-20T01:23:09.135Z,98234.60
2022-08-20T01:24:36.979Z,98235.29
2022-08-20T01:26:09.612Z,98237.20
2022-08-20T01:27:11.426Z,98245.74
2022-08-20T01:28:16.281Z,98247.05
2022-08-20T01:29:29.319Z,98248.89
2022-08-20T01:30:32.793Z,98243.33
2022-08-20T01:31:38.408Z,98241.59
2022-08-20T01:32:40.189Z,98241.59
2022-08-20T01:33:42.543Z,98235.52
2022-08-20T01:34:46.341Z,98232.02
2022-08-20T01:35:49.655Z,98225.36
2022-08-20T01:36:55.297Z,98220.09
2022-08-20T01:37:57.249Z,98215.10
2022-08-20T01:39:00.301Z,98210.42
2022-08-20T01:40:04.518Z,98209.88
2022-08-20T01:41:28.776Z,98213.30
2022-08-20T01:42:58.794Z,98213.44
2022-08-20T01:44:02.217Z,98207.15
2022-08-20T01:45:07.038Z,98196.72
2022-08-20T01:46:10.257Z,98186.34
2022-08-20T01:47:16.859Z,98175.95
2022-08-20T01:48:21.457Z,98168.15
2022-08-20T01:49:31.052Z,98157.77
2022-08-20T01:50:38.902Z,98162.77
2022-08-20T01:51:41.882Z,98162.83
2022-08-20T01:52:55.414Z,98158.52
2022-08-20T01:53:59.914Z,98157.14
2022-08-20T01:55:02.435Z,98157.97
2022-08-20T01:56:11.253Z,98152.32
2022-08-20T01:57:17.366Z,98148.70
2022-08-20T01:58:19.240Z,98151.28
2022-08-20T01:59:21.130Z,98156.73
2022-08-20T02:00:23.951Z,98160.17
2022-08-20T02:01:46.020Z,98159.61
2022-08-20T02:02:49.290Z,98161.29
2022-08-20T02:03:51.298Z,98168.81
2022-08-20T02:04:53.031Z,98176.29
2022-08-20T02:05:54.706Z,98174.70
2022-08-20T02:06:58.585Z,98168.96
2022-08-20T02:08:01.842Z,98164.77
2022-08-20T02:09:05.268Z,98167.10
2022-08-20T02:10:11.052Z,98176.38
2022-08-20T02:11:13.544Z,98177.41
2022-08-20T02:12:16.645Z,98174.36
2022-08-20T02:13:18.773Z,98171.89
2022-08-20T02:14:20.938Z,98165.40
2022-08-20T02:15:34.750Z,98161.86
2022-08-20T02:16:43.429Z,98159.86
2022-08-20T02:17:54.426Z,98158.55
2022-08-20T02:19:02.381Z,98155.59
2022-08-20T02:20:08.948Z,98153.10
2022-08-20T02:21:10.729Z,98155.20
2022-08-20T02:22:31.251Z,98155.55
2022-08-20T02:23:32.967Z,98158.26
2022-08-20T02:24:35.485Z,98157.28
2022-08-20T02:25:41.527Z,98157.17
2022-08-20T02:26:44.372Z,98154.82
2022-08-20T02:27:48.684Z,98150.09
2022-08-20T02:28:53.106Z,98142.65
2022-08-20T02:29:54.821Z,98140.00
2022-08-20T02:30:56.664Z,98137.52
2022-08-20T02:32:24.575Z,98138.23
2022-08-20T02:33:24.229Z,98142.41
2022-08-20T02:34:26.324Z,98147.20
2022-08-20T02:35:29.783Z,98143.56
2022-08-20T02:36:32.096Z,98143.66
2022-08-20T02:37:34.262Z,98142.04
2022-08-20T02:38:35.960Z,98139.22
2022-08-20T02:39:37.706Z,98140.61
2022-08-20T02:40:41.016Z,98144.38
2022-08-20T02:41:42.771Z,98150.16
2022-08-20T02:42:44.894Z,98150.17
2022-08-20T02:43:46.566Z,98150.96
2022-08-20T02:44:48.228Z,98150.17
2022-08-20T02:45:50.024Z,98148.70
2022-08-20T02:46:51.934Z,98146.16
2022-08-20T02:47:55.727Z,98147.99
2022-08-20T02:48:58.578Z,98147.91
2022-08-20T02:50:00.281Z,98145.46
2022-08-20T02:51:06.599Z,98143.81
2022-08-20T02:52:08.448Z,98142.80
2022-08-20T02:53:10.129Z,98137.24
2022-08-20T02:54:13.882Z,98135.52
2022-08-20T02:55:26.949Z,98139.23
2022-08-20T02:56:29.856Z,98135.28
2022-08-20T02:57:32.099Z,98132.80
2022-08-20T02:58:35.249Z,98131.98
2022-08-20T02:59:36.960Z,98132.08
2022-08-20T03:00:39.432Z,98131.30
2022-08-20T03:01:41.154Z,98133.80
2022-08-20T03:02:43.185Z,98130.58
2022-08-20T03:03:45.388Z,98131.73
2022-08-20T03:04:47.130Z,98129.23
2022-08-20T03:05:52.267Z,98126.61
2022-08-20T03:06:54.255Z,98124.95
2022-08-20T03:07:59.889Z,98124.31
2022-08-20T03:09:02.672Z,98123.15
2022-08-20T03:10:04.746Z,98125.52
2022-08-20T03:11:07.385Z,98127.56
2022-08-20T03:12:09.739Z,98126.14
2022-08-20T03:13:13.402Z,98126.67
2022-08-20T03:14:15.070Z,98127.98
2022-08-20T03:15:17.812Z,98123.56
2022-08-20T03:16:20.161Z,98117.17
2022-08-20T03:17:21.975Z,98118.77
2022-08-20T03:18:26.482Z,98118.51
2022-08-20T03:19:29.894Z,98111.64
2022-08-20T03:20:32.715Z,98112.39
2022-08-20T03:21:35.251Z,98115.45
2022-08-20T03:22:37.052Z,98115.20
2022-08-20T03:23:40.416Z,98118.38
2022-08-20T03:24:42.364Z,98119.29
2022-08-20T03:25:44.409Z,98122.95
2022-08-20T03:26:46.649Z,98125.91
2022-08-20T03:27:54.624Z,98127.61
2022-08-20T03:28:56.810Z,98137.95
2022-08-20T03:29:58.511Z,98141.61
2022-08-20T03:31:02.406Z,98142.95
2022-08-20T03:32:07.689Z,98144.08
2022-08-20T03:33:10.311Z,98143.61
2022-08-20T03:34:12.051Z,98143.30
2022-08-20T03:35:16.428Z,98146.83
2022-08-20T03:36:19.221Z,98150.61
2022-08-20T03:37:24.348Z,98149.76
2022-08-20T03:38:33.284Z,98146.92
2022-08-20T03:39:35.307Z,98148.15
2022-08-20T03:40:38.356Z,98149.36
2022-08-20T03:41:40.283Z,98148.52
2022-08-20T03:42:43.006Z,98154.19
2022-08-20T03:43:45.989Z,98149.73
2022-08-20T03:44:48.590Z,98152.51
2022-08-20T03:46:01.217Z,98153.62
2022-08-20T03:47:07.645Z,98155.02
2022-08-20T03:48:16.237Z,98152.59
2022-08-20T03:49:18.053Z,98151.77
2022-08-20T03:50:24.517Z,98149.95
2022-08-20T03:51:26.765Z,98148.08
2022-08-20T03:52:29.444Z,98151.23
2022-08-20T03:53:31.926Z,98149.13
2022-08-20T03:54:33.820Z,98147.37
2022-08-20T03:55:35.874Z,98149.93
2022-08-20T03:56:38.146Z,98150.67
2022-08-20T03:57:53.661Z,98148.86
2022-08-20T03:58:55.962Z,98152.36
2022-08-20T03:59:58.505Z,98153.39
2022-08-20T04:01:01.358Z,98149.33
2022-08-20T04:02:03.285Z,98142.64
2022-08-20T04:03:08.297Z,98139.25
2022-08-20T04:04:12.422Z,98141.08
2022-08-20T04:05:14.774Z,98141.77
2022-08-20T04:06:18.446Z,98141.45
2022-08-20T04:07:25.912Z,98148.16
2022-08-20T04:08:29.556Z,98141.70
2022-08-20T04:09:31.362Z,98142.73
2022-08-20T04:10:33.136Z,98140.27
2022-08-20T04:11:34.908Z,98139.80
2022-08-20T04:12:48.715Z,98142.06
2022-08-20T04:13:54.770Z,98140.33
2022-08-20T04:14:57.084Z,98140.52
2022-08-20T04:16:03.609Z,98138.36
2022-08-20T04:17:07.961Z,98138.79
2022-08-20T04:18:11.845Z,98139.50
2022-08-20T04:19:13.544Z,98142.04
2022-08-20T04:20:19.162Z,98144.55
2022-08-20T04:21:20.876Z,98145.34
2022-08-20T04:22:22.629Z,98142.96
2022-08-20T04:23:24.391Z,98144.90
2022-08-20T04:24:32.034Z,98150.11
2022-08-20T04:25:36.398Z,98148.64
2022-08-20T04:26:38.096Z,98146.99
2022-08-20T04:27:41.014Z,98151.49
2022-08-20T04:28:42.637Z,98153.25
2022-08-20T04:29:44.682Z,98154.84
2022-08-20T04:30:51.711Z,98157.71
2022-08-20T04:31:53.923Z,98161.79
2022-08-20T04:32:56.452Z,98163.88
2022-08-20T04:33:58.182Z,98162.71
2022-08-20T04:35:00.835Z,98161.23
2022-08-20T04:36:06.152Z,98166.42
2022-08-20T04:37:16.556Z,98166.73
2022-08-20T04:38:22.221Z,98166.64
2022-08-20T04:39:23.962Z,98168.67
2022-08-20T04:40:44.233Z,98167.43
2022-08-20T04:41:45.970Z,98171.72
2022-08-20T04:42:47.654Z,98172.56
2022-08-20T04:43:57.082Z,98173.98
2022-08-20T04:44:58.786Z,98178.17
2022-08-20T04:46:06.310Z,98177.91
2022-08-20T04:47:07.986Z,98178.33
2022-08-20T04:48:14.666Z,98176.52
2022-08-20T04:49:16.955Z,98172.75
2022-08-20T04:50:20.397Z,98173.48
2022-08-20T04:51:23.091Z,98172.04
2022-08-20T04:52:28.215Z,98171.45
2022-08-20T04:53:29.934Z,98171.63
2022-08-20T04:54:32.437Z,98173.17
2022-08-20T04:55:35.134Z,98180.14
2022-08-20T04:56:39.767Z,98175.49
2022-08-20T04:57:41.490Z,98180.83
2022-08-20T04:58:48.804Z,98180.77
2022-08-20T04:59:52.313Z,98181.08
2022-08-20T05:01:01.116Z,98180.96
2022-08-20T05:02:03.294Z,98183.55
2022-08-20T05:03:07.066Z,98177.56
2022-08-20T05:04:08.772Z,98179.95
2022-08-20T05:05:11.003Z,98178.88
2022-08-20T05:06:13.444Z,98176.54
2022-08-20T05:07:18.943Z,98176.09
2022-08-20T05:08:25.387Z,98172.44
2022-08-20T05:09:27.036Z,98171.30
2022-08-20T05:10:29.325Z,98173.54
2022-08-20T05:11:34.221Z,98172.14
2022-08-20T05:12:38.466Z,98170.64
2022-08-20T05:13:40.551Z,98171.67
2022-08-20T05:14:42.545Z,98174.41
2022-08-20T05:15:48.608Z,98173.60
2022-08-20T05:16:50.780Z,98175.44
2022-08-20T05:18:00.572Z,98179.65
2022-08-20T05:19:02.315Z,98183.70
2022-08-20T05:20:06.662Z,98182.70
2022-08-20T05:21:08.317Z,98182.60
2022-08-20T05:22:09.945Z,98175.73
2022-08-20T05:23:13.965Z,98181.65
2022-08-20T05:24:16.486Z,98178.09
2022-08-20T05:25:18.295Z,98174.64
2022-08-20T05:26:20.238Z,98174.43
2022-08-20T05:27:26.986Z,98175.02
2022-08-20T05:28:32.842Z,98170.02
2022-08-20T05:29:38.599Z,98170.02
2022-08-20T05:30:43.258Z,98172.45
2022-08-20T05:31:44.934Z,98171.70
2022-08-20T05:32:48.767Z,98173.02
2022-08-20T05:33:51.027Z,98174.95
2022-08-20T05:34:52.904Z,98173.70
2022-08-20T05:35:54.930Z,98174.67
2022-08-20T05:36:56.742Z,98170.15
2022-08-20T05:37:58.486Z,98168.79
2022-08-20T05:39:00.233Z,98171.31
2022-08-20T05:40:02.644Z,98167.42
2022-08-20T05:41:05.352Z,98168.35
2022-08-20T05:42:07.063Z,98170.64
2022-08-20T05:43:10.267Z,98171.90
2022-08-20T05:44:15.488Z,98168.59
2022-08-20T05:45:18.166Z,98168.17
2022-08-20T05:46:19.781Z,98164.34
2022-08-20T05:47:27.906Z,98162.43
2022-08-20T05:48:30.028Z,98157.93
2022-08-20T05:49:32.247Z,98157.67
2022-08-20T05:50:35.441Z,98153.59
2022-08-20T05:51:38.027Z,98150.91
2022-08-20T05:52:40.450Z,98145.92
2022-08-20T05:53:42.092Z,98148.09
2022-08-20T05:54:43.770Z,98142.71
2022-08-20T05:55:46.238Z,98143.27
2022-08-20T05:56:48.084Z,98142.98
2022-08-20T05:57:50.516Z,98142.52
2022-08-20T05:58:52.218Z,98140.27
2022-08-20T05:59:53.927Z,98140.46
2022-08-20T06:00:55.677Z,98136.87
2022-08-20T06:01:57.370Z,98138.76
2022-08-20T06:03:17.566Z,98136.29
2022-08-20T06:04:25.149Z,98139.80
2022-08-20T06:05:27.487Z,98136.53
2022-08-20T06:06:46.316Z,98133.51
2022-08-20T06:07:50.646Z,98132.20
2022-08-20T06:08:52.551Z,98132.88
2022-08-20T06:09:54.192Z,98131.91
2022-08-20T06:10:56.402Z,98130.86
2022-08-20T06:11:59.634Z,98128.55
2022-08-20T06:13:02.981Z,98125.23
2022-08-20T06:14:05.617Z,98123.77
2022-08-20T06:15:07.924Z,98121.42
2022-08-20T06:16:09.606Z,98119.69
2022-08-20T06:17:17.527Z,98122.09
2022-08-20T06:18:27.986Z,98121.27
2022-08-20T06:19:32.489Z,98123.91
2022-08-20T06:20:38.136Z,98123.90
2022-08-20T06:21:41.056Z,98127.21
2022-08-20T06:22:42.895Z,98129.63
2022-08-20T06:23:57.088Z,98132.46
2022-08-20T06:25:03.094Z,98132.70
2022-08-20T06:26:07.642Z,98133.27
2022-08-20T06:27:14.818Z,98134.05
2022-08-20T06:28:17.224Z,98132.00
2022-08-20T06:29:19.343Z,98130.36
2022-08-20T06:30:21.400Z,98130.42
2022-08-20T06:31:23.114Z,98130.27
2022-08-20T06:32:28.782Z,98130.91
2022-08-20T06:33:34.230Z,98127.16
2022-08-20T06:34:36.723Z,98128.48
2022-08-20T06:35:38.430Z,98125.30
2022-08-20T06:36:40.089Z,98127.70
2022-08-20T06:37:43.062Z,98127.80
2022-08-20T06:38:45.886Z,98128.23
2022-08-20T06:39:47.638Z,98127.63
2022-08-20T06:40:49.369Z,98130.31
2022-08-20T06:41:51.774Z,98131.45
2022-08-20T06:42:56.820Z,98130.77
2022-08-20T06:43:58.533Z,98131.71
2022-08-20T06:45:00.555Z,98133.84
2022-08-20T06:46:02.287Z,98132.50
2022-08-20T06:47:04.973Z,98131.52
2022-08-20T06:48:11.161Z,98133.61
2022-08-20T06:49:17.126Z,98132.48
2022-08-20T06:50:26.643Z,98133.60
2022-08-20T06:51:28.389Z,98133.51
2022-08-20T06:52:47.132Z,98132.30
2022-08-20T06:53:51.798Z,98131.73
2022-08-20T06:54:53.474Z,98132.81
2022-08-20T06:55:59.211Z,98133.73
2022-08-20T06:57:04.438Z,98133.01
2022-08-20T06:58:22.284Z,98133.23
2022-08-20T06:59:31.151Z,98136.67
2022-08-20T07:00:36.459Z,98138.36
2022-08-20T07:01:38.233Z,98140.20
2022-08-20T07:02:40.757Z,98141.34
2022-08-20T07:03:55.414Z,98142.39
2022-08-20T07:04:57.909Z,98141.77
2022-08-20T07:05:59.554Z,98141.98
2022-08-20T07:07:01.297Z,98138.18
2022-08-20T07:08:04.296Z,98139.73
2022-08-20T07:09:05.933Z,98138.75
2022-08-20T07:10:10.680Z,98139.27
2022-08-20T07:11:12.422Z,98140.33
2022-08-20T07:12:14.296Z,98139.95
2022-08-20T07:13:16.403Z,98138.58
2022-08-20T07:14:19.486Z,98137.02
2022-08-20T07:15:23.857Z,98140.97
2022-08-20T07:16:26.378Z,98139.41
2022-08-20T07:17:28.147Z,98137.55
2022-08-20T07:18:29.865Z,98140.03
2022-08-20T07:19:31.688Z,98141.25
2022-08-20T07:20:36.907Z,98142.61
2022-08-20T07:21:38.648Z,98145.71
2022-08-20T07:22:40.964Z,98147.71
2022-08-20T07:23:42.840Z,98150.42
2022-08-20T07:24:48.938Z,98153.45
2022-08-20T07:25:50.950Z,98154.38
2022-08-20T07:26:52.748Z,98155.73
2022-08-20T07:28:08.966Z,98156.88
2022-08-20T07:29:10.735Z,98159.15
2022-08-20T07:30:55.887Z,98162.02
2022-08-20T07:32:16.069Z,98165.21
2022-08-20T07:33:23.556Z,98167.50
2022-08-20T07:34:25.237Z,98167.01
2022-08-20T07:35:27.288Z,98169.92
2022-08-20T07:36:28.992Z,98165.94
2022-08-20T07:37:31.471Z,98170.69
2022-08-20T07:38:35.337Z,98172.55
2022-08-20T07:39:37.028Z,98173.83
2022-08-20T07:40:41.457Z,98173.38
2022-08-20T07:41:43.306Z,98176.16
2022-08-20T07:42:51.685Z,98173.58
2022-08-20T07:43:53.433Z,98175.35
2022-08-20T07:44:55.426Z,98173.88
2022-08-20T07:46:01.339Z,98173.52
2022-08-20T07:47:04.680Z,98174.98
2022-08-20T07:48:12.240Z,98178.63
2022-08-20T07:49:13.941Z,98177.31
2022-08-20T07:50:21.769Z,98177.39
2022-08-20T07:51:23.757Z,98180.52
2022-08-20T07:52:25.409Z,98178.70
2022-08-20T07:53:31.144Z,98179.81
2022-08-20T07:54:38.019Z,98180.35
2022-08-20T07:55:41.468Z,98179.88
2022-08-20T07:57:05.123Z,98179.83
2022-08-20T07:58:11.435Z,98177.64
2022-08-20T07:59:13.829Z,98177.11
2022-08-20T08:00:17.983Z,98176.38
2022-08-20T08:01:25.948Z,98178.13
2022-08-20T08:02:28.275Z,98177.54
2022-08-20T08:03:39.697Z,98181.13
2022-08-20T08:04:51.198Z,98181.14
2022-08-20T08:05:52.870Z,98181.48
2022-08-20T08:06:59.868Z,98180.55
2022-08-20T08:08:07.128Z,98180.31
2022-08-20T08:09:14.261Z,98182.36
2022-08-20T08:10:22.018Z,98174.19
2022-08-20T08:11:23.810Z,98175.26
2022-08-20T08:12:36.326Z,98174.35
2022-08-20T08:13:41.241Z,98169.08
2022-08-20T08:14:46.293Z,98168.11
2022-08-20T08:15:50.455Z,98165.50
2022-08-20T08:16:55.286Z,98161.92
2022-08-20T08:18:07.714Z,98163.68
2022-08-20T08:19:11.876Z,98165.98
2022-08-20T08:20:14.476Z,98162.66
2022-08-20T08:21:17.710Z,98164.00
2022-08-20T08:22:20.249Z,98166.52
2022-08-20T08:23:31.697Z,98167.88
2022-08-20T08:24:34.475Z,98170.58
2022-08-20T08:25:36.207Z,98171.92
2022-08-20T08:26:38.097Z,98173.66
2022-08-20T08:27:40.838Z,98175.25
2022-08-20T08:28:46.062Z,98174.70
2022-08-20T08:29:49.702Z,98176.77
2022-08-20T08:30:52.342Z,98177.23
2022-08-20T08:31:53.976Z,98175.57
2022-08-20T08:33:14.240Z,98171.70
2022-08-20T08:34:15.965Z,98173.43
2022-08-20T08:35:17.692Z,98169.86
2022-08-20T08:36:19.409Z,98170.10
2022-08-20T08:37:21.094Z,98166.14
2022-08-20T08:38:23.811Z,98166.78
2022-08-20T08:39:25.633Z,98168.04
2022-08-20T08:40:34.135Z,98166.30
2022-08-20T08:41:47.166Z,98168.12
2022-08-20T08:42:58.109Z,98166.52
2022-08-20T08:44:14.369Z,98163.20
2022-08-20T08:45:19.230Z,98163.10
2022-08-20T08:46:26.587Z,98162.70
2022-08-20T08:47:34.564Z,98162.31
2022-08-20T08:48:43.362Z,98161.05
2022-08-20T08:49:48.003Z,98159.61
2022-08-20T08:50:54.673Z,98155.41
2022-08-20T08:52:07.498Z,98160.48
2022-08-20T08:53:18.983Z,98159.45
2022-08-20T08:54:24.782Z,98159.94
2022-08-20T08:55:29.501Z,98157.25
2022-08-20T08:56:31.380Z,98158.43
2022-08-20T08:57:34.292Z,98161.04
2022-08-20T08:58:36.249Z,98157.64
2022-08-20T09:00:02.363Z,98159.70
2022-08-20T09:01:06.858Z,98164.62
2022-08-20T09:02:20.886Z,98163.52
2022-08-20T09:03:29.386Z,98163.03
2022-08-20T09:04:41.114Z,98165.89
2022-08-20T09:05:53.818Z,98160.19
2022-08-20T09:06:55.838Z,98160.19
2022-08-20T09:08:02.558Z,98162.65
2022-08-20T09:09:07.291Z,98165.35
2022-08-20T09:10:09.114Z,98166.55
2022-08-20T09:11:10.944Z,98169.23
2022-08-20T09:12:19.043Z,98171.45
2022-08-20T09:13:20.865Z,98172.64
2022-08-20T09:14:24.976Z,98173.20
2022-08-20T09:15:27.505Z,98174.56
2022-08-20T09:16:52.093Z,98176.31
2022-08-20T09:17:50.879Z,98174.72
2022-08-20T09:18:53.191Z,98175.42
2022-08-20T09:19:54.882Z,98179.30
2022-08-20T09:20:56.645Z,98178.60
2022-08-20T09:21:58.362Z,98180.34
2022-08-20T09:23:00.042Z,98179.54
2022-08-20T09:24:01.924Z,98178.27
2022-08-20T09:25:04.469Z,98179.94
2022-08-20T09:26:06.796Z,98176.93
2022-08-20T09:27:08.916Z,98179.94
2022-08-20T09:28:10.908Z,98175.96
2022-08-20T09:29:15.115Z,98181.05
2022-08-20T09:30:17.984Z,98186.98
2022-08-20T09:31:20.246Z,98191.42
2022-08-20T09:32:26.035Z,98191.27
2022-08-20T09:33:28.173Z,98195.48
2022-08-20T09:34:29.854Z,98194.05
2022-08-20T09:35:31.539Z,98200.23
2022-08-20T09:36:33.555Z,98198.50
2022-08-20T09:37:37.650Z,98199.45
2022-08-20T09:38:39.642Z,98199.77
2022-08-20T09:39:41.923Z,98199.61
2022-08-20T09:40:44.446Z,98201.60
2022-08-20T09:41:46.120Z,98201.02
2022-08-20T09:42:49.569Z,98205.30
2022-08-20T09:43:51.227Z,98209.27
2022-08-20T09:44:52.925Z,98206.02
2022-08-20T09:45:54.673Z,98209.66
2022-08-20T09:46:56.316Z,98208.38
2022-08-20T09:47:58.543Z,98208.79
2022-08-20T09:49:01.687Z,98206.96
2022-08-20T09:50:04.473Z,98210.44
2022-08-20T09:51:06.474Z,98212.98
2022-08-20T09:52:17.998Z,98210.52
2022-08-20T09:53:21.850Z,98207.49
2022-08-20T09:54:23.715Z,98209.95
2022-08-20T09:55:35.777Z,98208.23
2022-08-20T09:56:37.459Z,98206.23
2022-08-20T09:57:39.154Z,98206.54
2022-08-20T09:58:53.329Z,98206.23
2022-08-20T10:00:01.393Z,98205.83
2022-08-20T10:01:13.874Z,98206.53
2022-08-20T10:02:16.009Z,98200.19
2022-08-20T10:03:18.262Z,98201.76
2022-08-20T10:04:20.025Z,98201.04
2022-08-20T10:05:21.681Z,98200.02
2022-08-20T10:06:24.411Z,98201.98
2022-08-20T10:07:26.206Z,98202.89
2022-08-20T10:08:28.427Z,98202.02
2022-08-20T10:09:30.237Z,98199.77
2022-08-20T10:10:32.023Z,98198.88
2022-08-20T10:11:33.833Z,98199.65
2022-08-20T10:12:35.747Z,98198.55
2022-08-20T10:13:37.400Z,98200.67
2022-08-20T10:14:39.049Z,98202.09
2022-08-20T10:15:41.973Z,98198.35
2022-08-20T10:16:44.413Z,98199.85
2022-08-20T10:17:46.034Z,98193.50
2022-08-20T10:18:49.278Z,98190.26
2022-08-20T10:19:50.972Z,98191.41
2022-08-20T10:20:52.634Z,98192.45
2022-08-20T10:21:54.951Z,98191.16
2022-08-20T10:22:56.669Z,98185.98
2022-08-20T10:23:59.193Z,98184.52
2022-08-20T10:25:01.059Z,98183.77
2022-08-20T10:26:02.813Z,98182.08
2022-08-20T10:27:04.825Z,98179.14
2022-08-20T10:28:07.058Z,98180.09
2022-08-20T10:29:08.948Z,98176.35
2022-08-20T10:30:11.406Z,98171.65
2022-08-20T10:31:13.201Z,98169.48
2022-08-20T10:32:17.211Z,98165.50
2022-08-20T10:33:18.977Z,98163.98
2022-08-20T10:34:20.737Z,98160.24
2022-08-20T10:35:22.496Z,98158.89
2022-08-20T10:36:24.147Z,98157.80
2022-08-20T10:37:26.774Z,98159.15
2022-08-20T10:38:28.404Z,98156.14
2022-08-20T10:39:31.562Z,98158.92
2022-08-20T10:40:33.368Z,98160.30
2022-08-20T10:41:38.763Z,98159.95
2022-08-20T10:42:42.759Z,98166.30
2022-08-20T10:43:44.526Z,98167.51
2022-08-20T10:44:46.895Z,98166.89
2022-08-20T10:45:48.553Z,98170.40
2022-08-20T10:46:50.251Z,98173.38
2022-08-20T10:48:01.982Z,98175.13
2022-08-20T10:49:04.855Z,98176.98
2022-08-20T10:50:12.011Z,98177.02
2022-08-20T10:51:13.675Z,98178.52
2022-08-20T10:52:15.357Z,98177.41
2022-08-20T10:53:17.846Z,98179.95
2022-08-20T10:54:19.585Z,98182.66
2022-08-20T10:55:21.269Z,98184.79
2022-08-20T10:56:23.037Z,98184.64
2022-08-20T10:57:28.624Z,98186.27
2022-08-20T10:58:37.644Z,98188.75
2022-08-20T10:59:44.855Z,98187.09
2022-08-20T11:00:47.250Z,98191.30
2022-08-20T11:01:49.020Z,98188.54
2022-08-20T11:02:50.783Z,98190.59
2022-08-20T11:03:52.474Z,98188.28
2022-08-20T11:04:55.166Z,98186.60
2022-08-20T11:05:56.934Z,98192.45
2022-08-20T11:06:58.688Z,98191.39
2022-08-20T11:08:04.090Z,98190.45
2022-08-20T11:09:06.030Z,98192.81
2022-08-20T11:10:13.720Z,98190.37
2022-08-20T11:11:15.586Z,98188.41
2022-08-20T11:12:19.820Z,98184.30
2022-08-20T11:13:22.011Z,98181.23
2022-08-20T11:14:23.711Z,98179.18
2022-08-20T11:15:26.217Z,98176.58
2022-08-20T11:16:28.022Z,98176.72
2022-08-20T11:17:33.310Z,98174.73
2022-08-20T11:18:38.825Z,98175.16
2022-08-20T11:19:43.338Z,98172.89
2022-08-20T11:20:45.087Z,98171.50
2022-08-20T11:21:46.724Z,98173.33
2022-08-20T11:22:48.430Z,98171.27
2022-08-20T11:23:50.501Z,98169.79
2022-08-20T11:24:53.297Z,98172.00
2022-08-20T11:25:55.101Z,98170.04
2022-08-20T11:26:56.902Z,98171.30
2022-08-20T11:27:58.957Z,98172.80
2022-08-20T11:29:00.747Z,98170.48
2022-08-20T11:30:03.062Z,98171.73
2022-08-20T11:31:04.809Z,98172.73
2022-08-20T11:32:06.868Z,98176.84
2022-08-20T11:33:08.903Z,98178.57
2022-08-20T11:34:12.736Z,98172.34
2022-08-20T11:35:41.215Z,98179.70
2022-08-20T11:36:37.838Z,98174.17
2022-08-20T11:37:40.467Z,98175.89
2022-08-20T11:38:42.114Z,98169.63
2022-08-20T11:39:44.199Z,98168.77
2022-08-20T11:40:48.948Z,98168.52
2022-08-20T11:41:55.338Z,98168.54
2022-08-20T11:43:15.615Z,98165.36
2022-08-20T11:44:21.091Z,98162.89
2022-08-20T11:45:23.352Z,98163.99
2022-08-20T11:46:28.487Z,98161.20
2022-08-20T11:47:30.556Z,98161.73
2022-08-20T11:48:32.265Z,98163.81
2022-08-20T11:49:36.428Z,98161.45
2022-08-20T11:50:38.129Z,98162.48
2022-08-20T11:51:49.461Z,98162.14
2022-08-20T11:52:52.039Z,98162.46
2022-08-20T11:53:53.807Z,98161.30
2022-08-20T11:54:56.521Z,98160.05
2022-08-20T11:55:59.539Z,98158.14
2022-08-20T11:57:01.221Z,98154.88
2022-08-20T11:58:03.501Z,98154.17
2022-08-20T11:59:05.479Z,98152.04
2022-08-20T12:00:13.592Z,98152.67
2022-08-20T12:01:15.256Z,98151.95
2022-08-20T12:02:17.041Z,98152.04
2022-08-20T12:03:18.780Z,98153.30
2022-08-20T12:04:20.753Z,98152.34
2022-08-20T12:05:23.982Z,98155.98
2022-08-20T12:06:25.666Z,98152.41
2022-08-20T12:07:27.514Z,98148.61
2022-08-20T12:08:29.466Z,98147.11
2022-08-20T12:09:31.107Z,98148.27
2022-08-20T12:10:33.005Z,98145.95
2022-08-20T12:11:34.692Z,98149.03
2022-08-20T12:12:38.720Z,98146.11
2022-08-20T12:13:48.808Z,98144.90
2022-08-20T12:14:55.538Z,98148.63
2022-08-20T12:15:58.017Z,98151.17
2022-08-20T12:17:12.184Z,98147.75
2022-08-20T12:18:13.829Z,98145.38
2022-08-20T12:19:15.754Z,98145.37
2022-08-20T12:20:17.529Z,98144.07
2022-08-20T12:21:19.693Z,98141.56
2022-08-20T12:22:25.241Z,98142.42
2022-08-20T12:23:27.341Z,98140.98
2022-08-20T12:24:29.633Z,98140.77
2022-08-20T12:25:31.439Z,98139.61
2022-08-20T12:26:33.089Z,98142.97
2022-08-20T12:27:37.660Z,98141.88
2022-08-20T12:28:39.856Z,98141.73
2022-08-20T12:29:44.297Z,98142.76
2022-08-20T12:30:45.916Z,98140.48
2022-08-20T12:31:47.598Z,98137.05
2022-08-20T12:32:49.609Z,98140.06
2022-08-20T12:33:51.279Z,98144.66
2022-08-20T12:34:53.892Z,98144.11
2022-08-20T12:35:57.302Z,98142.68
2022-08-20T12:37:05.085Z,98146.48
2022-08-20T12:38:07.090Z,98151.86